T7VRE ENGM-EETN
Flight info
| Callsign | T7VRE |
|---|---|
| Flight time | 1h 30m |
| Altitude | 21000 |
| Route | MASEV DCT BOR DCT HMR DCT MAR DCT DOBAN |
| Aircraft | EPIC/L-SDRGXW/SB2 |
Departure
| Time | 2026-05-04 22:16 |
|---|---|
| Airport | Oslo-Gardermoen International Airport (ENGM) |
Arrival
| Time | 2026-05-04 23:46 |
|---|---|
| Airport | Lennart Meri Tallinn Airport (EETN) |
| Time | Latitude | Longitude | Altitude | Speed | Heading |
|---|---|---|---|---|---|
| 2026-05-04 22:06 | 60.19959 | 11.07676 | 678 ft | 0 kts | 265° |
| 2026-05-04 22:13 | 60.19957 | 11.07667 | 678 ft | 5 kts | 224° |
| 2026-05-04 22:14 | 60.19928 | 11.07773 | 679 ft | 10 kts | 112° |
| 2026-05-04 22:14 | 60.19847 | 11.07813 | 679 ft | 16 kts | 175° |
| 2026-05-04 22:14 | 60.19802 | 11.07869 | 678 ft | 0 kts | 110° |
| 2026-05-04 22:15 | 60.19800 | 11.07879 | 678 ft | 5 kts | 110° |
| 2026-05-04 22:16 | 60.19796 | 11.08089 | 678 ft | 23 kts | 48° |
| 2026-05-04 22:16 | 60.20054 | 11.08259 | 682 ft | 74 kts | 14° |
| 2026-05-04 22:16 | 60.20740 | 11.08729 | 773 ft | 124 kts | 18° |
| 2026-05-04 22:16 | 60.21570 | 11.09329 | 1378 ft | 132 kts | 14° |
| 2026-05-04 22:17 | 60.22452 | 11.09789 | 2082 ft | 131 kts | 8° |
| 2026-05-04 22:17 | 60.23312 | 11.10130 | 2657 ft | 132 kts | 7° |
| 2026-05-04 22:17 | 60.24166 | 11.10578 | 3214 ft | 130 kts | 6° |
| 2026-05-04 22:17 | 60.25072 | 11.11132 | 3616 ft | 141 kts | 11° |
| 2026-05-04 22:18 | 60.25971 | 11.11349 | 4169 ft | 129 kts | 342° |
| 2026-05-04 22:18 | 60.26849 | 11.10844 | 4500 ft | 130 kts | 341° |
| 2026-05-04 22:18 | 60.27720 | 11.10544 | 4897 ft | 130 kts | 350° |
| 2026-05-04 22:18 | 60.28639 | 11.10435 | 5145 ft | 137 kts | 350° |
| 2026-05-04 22:19 | 60.29619 | 11.10644 | 5373 ft | 152 kts | 22° |
| 2026-05-04 22:19 | 60.30309 | 11.12360 | 5572 ft | 172 kts | 68° |
| 2026-05-04 22:19 | 60.30640 | 11.14573 | 6044 ft | 160 kts | 56° |
| 2026-05-04 22:19 | 60.31150 | 11.16546 | 6368 ft | 161 kts | 54° |
| 2026-05-04 22:20 | 60.31681 | 11.18589 | 6647 ft | 166 kts | 55° |
| 2026-05-04 22:20 | 60.32227 | 11.20670 | 6917 ft | 171 kts | 55° |
| 2026-05-04 22:20 | 60.32781 | 11.22801 | 7254 ft | 170 kts | 55° |
| 2026-05-04 22:20 | 60.33311 | 11.24840 | 7649 ft | 162 kts | 55° |
| 2026-05-04 22:21 | 60.33825 | 11.26841 | 7888 ft | 163 kts | 55° |
| 2026-05-04 22:21 | 60.34351 | 11.28890 | 8124 ft | 164 kts | 54° |
| 2026-05-04 22:21 | 60.34861 | 11.30960 | 8335 ft | 168 kts | 64° |
| 2026-05-04 22:21 | 60.35218 | 11.33235 | 8554 ft | 171 kts | 66° |
| 2026-05-04 22:22 | 60.35679 | 11.35411 | 8787 ft | 169 kts | 56° |
| 2026-05-04 22:22 | 60.36208 | 11.37557 | 8936 ft | 177 kts | 57° |
| 2026-05-04 22:22 | 60.36761 | 11.39883 | 8978 ft | 189 kts | 58° |
| 2026-05-04 22:22 | 60.37328 | 11.42309 | 9114 ft | 193 kts | 59° |
| 2026-05-04 22:23 | 60.37904 | 11.44798 | 9289 ft | 195 kts | 58° |
| 2026-05-04 22:23 | 60.38479 | 11.47272 | 9485 ft | 195 kts | 59° |
| 2026-05-04 22:23 | 60.39051 | 11.49741 | 9607 ft | 196 kts | 59° |
| 2026-05-04 22:23 | 60.39636 | 11.52260 | 9671 ft | 197 kts | 59° |
| 2026-05-04 22:24 | 60.40182 | 11.54641 | 10038 ft | 182 kts | 58° |
| 2026-05-04 22:24 | 60.40712 | 11.56920 | 10280 ft | 180 kts | 58° |
| 2026-05-04 22:24 | 60.41243 | 11.59223 | 10527 ft | 181 kts | 58° |
| 2026-05-04 22:24 | 60.41777 | 11.61534 | 10732 ft | 184 kts | 58° |
| 2026-05-04 22:25 | 60.42019 | 11.64080 | 10923 ft | 192 kts | 98° |
| 2026-05-04 22:25 | 60.41480 | 11.66484 | 11178 ft | 189 kts | 123° |
| 2026-05-04 22:25 | 60.40819 | 11.68806 | 11395 ft | 191 kts | 122° |
| 2026-05-04 22:25 | 60.40178 | 11.71158 | 11608 ft | 193 kts | 122° |
| 2026-05-04 22:26 | 60.39527 | 11.73582 | 11931 ft | 201 kts | 122° |
| 2026-05-04 22:26 | 60.38857 | 11.76089 | 12330 ft | 208 kts | 123° |
| 2026-05-04 22:26 | 60.38157 | 11.78707 | 12778 ft | 213 kts | 123° |
| 2026-05-04 22:26 | 60.37451 | 11.81334 | 13232 ft | 216 kts | 123° |
| 2026-05-04 22:27 | 60.36735 | 11.84004 | 13667 ft | 221 kts | 124° |
| 2026-05-04 22:27 | 60.35990 | 11.86770 | 14140 ft | 224 kts | 124° |
| 2026-05-04 22:27 | 60.35238 | 11.89564 | 14569 ft | 229 kts | 124° |
| 2026-05-04 22:27 | 60.34481 | 11.92385 | 15014 ft | 231 kts | 126° |
| 2026-05-04 22:28 | 60.33713 | 11.95212 | 15469 ft | 234 kts | 126° |
| 2026-05-04 22:28 | 60.32927 | 11.98126 | 15897 ft | 238 kts | 126° |
| 2026-05-04 22:28 | 60.32142 | 12.01029 | 16358 ft | 241 kts | 127° |
| 2026-05-04 22:28 | 60.31346 | 12.03985 | 16782 ft | 243 kts | 128° |
| 2026-05-04 22:29 | 60.30527 | 12.06988 | 17172 ft | 248 kts | 128° |
| 2026-05-04 22:29 | 60.29698 | 12.10045 | 17611 ft | 249 kts | 128° |
| 2026-05-04 22:29 | 60.28862 | 12.13138 | 18035 ft | 253 kts | 129° |
| 2026-05-04 22:29 | 60.28016 | 12.16235 | 18477 ft | 255 kts | 130° |
| 2026-05-04 22:30 | 60.27163 | 12.19360 | 18903 ft | 258 kts | 129° |
| 2026-05-04 22:30 | 60.26298 | 12.22524 | 19352 ft | 259 kts | 130° |
| 2026-05-04 22:30 | 60.25432 | 12.25676 | 19772 ft | 263 kts | 130° |
| 2026-05-04 22:30 | 60.24537 | 12.28932 | 20197 ft | 267 kts | 129° |
| 2026-05-04 22:31 | 60.23651 | 12.32182 | 20628 ft | 269 kts | 130° |
| 2026-05-04 22:31 | 60.22727 | 12.35531 | 20694 ft | 280 kts | 130° |
| 2026-05-04 22:31 | 60.21781 | 12.38970 | 20698 ft | 285 kts | 130° |
| 2026-05-04 22:31 | 60.20811 | 12.42478 | 20701 ft | 285 kts | 130° |
| 2026-05-04 22:32 | 60.19845 | 12.45982 | 20703 ft | 289 kts | 129° |
| 2026-05-04 22:32 | 60.18863 | 12.49521 | 20718 ft | 295 kts | 129° |
| 2026-05-04 22:32 | 60.18030 | 12.53342 | 20735 ft | 315 kts | 103° |
| 2026-05-04 22:32 | 60.18129 | 12.57784 | 20762 ft | 323 kts | 76° |
| 2026-05-04 22:33 | 60.18572 | 12.62260 | 20728 ft | 329 kts | 76° |
| 2026-05-04 22:33 | 60.19008 | 12.66766 | 20710 ft | 332 kts | 77° |
| 2026-05-04 22:33 | 60.19430 | 12.71301 | 20708 ft | 333 kts | 77° |
| 2026-05-04 22:33 | 60.19850 | 12.75854 | 20711 ft | 334 kts | 77° |
| 2026-05-04 22:34 | 60.20277 | 12.80473 | 20702 ft | 335 kts | 78° |
| 2026-05-04 22:34 | 60.20692 | 12.85065 | 20723 ft | 336 kts | 77° |
| 2026-05-04 22:34 | 60.21109 | 12.89633 | 20719 ft | 337 kts | 78° |
| 2026-05-04 22:34 | 60.21527 | 12.94271 | 20722 ft | 337 kts | 78° |
| 2026-05-04 22:35 | 60.21944 | 12.98921 | 20726 ft | 337 kts | 78° |
| 2026-05-04 22:35 | 60.22362 | 13.03512 | 20725 ft | 338 kts | 78° |
| 2026-05-04 22:35 | 60.22774 | 13.08168 | 20731 ft | 339 kts | 78° |
| 2026-05-04 22:35 | 60.23188 | 13.12843 | 20733 ft | 340 kts | 77° |
| 2026-05-04 22:36 | 60.23604 | 13.17480 | 20724 ft | 341 kts | 78° |
| 2026-05-04 22:36 | 60.24016 | 13.22194 | 20720 ft | 341 kts | 77° |
| 2026-05-04 22:36 | 60.24430 | 13.26854 | 20715 ft | 342 kts | 78° |
| 2026-05-04 22:36 | 60.24839 | 13.31577 | 20716 ft | 342 kts | 78° |
| 2026-05-04 22:37 | 60.25250 | 13.36236 | 20714 ft | 342 kts | 78° |
| 2026-05-04 22:37 | 60.25654 | 13.40968 | 20709 ft | 343 kts | 78° |
| 2026-05-04 22:37 | 60.26060 | 13.45660 | 20706 ft | 342 kts | 77° |
| 2026-05-04 22:37 | 60.26464 | 13.50387 | 20711 ft | 342 kts | 78° |
| 2026-05-04 22:38 | 60.26870 | 13.55061 | 20713 ft | 343 kts | 78° |
| 2026-05-04 22:38 | 60.27273 | 13.59790 | 20722 ft | 343 kts | 78° |
| 2026-05-04 22:38 | 60.27668 | 13.64488 | 20704 ft | 343 kts | 77° |
| 2026-05-04 22:38 | 60.28072 | 13.69252 | 20698 ft | 343 kts | 79° |
| 2026-05-04 22:39 | 60.28464 | 13.73926 | 20694 ft | 343 kts | 78° |
| 2026-05-04 22:39 | 60.28862 | 13.78699 | 20690 ft | 343 kts | 79° |
| 2026-05-04 22:39 | 60.29259 | 13.83404 | 20695 ft | 343 kts | 79° |
| 2026-05-04 22:39 | 60.29644 | 13.88096 | 20685 ft | 342 kts | 78° |
| 2026-05-04 22:40 | 60.30040 | 13.92843 | 20680 ft | 342 kts | 79° |
| 2026-05-04 22:40 | 60.30423 | 13.97534 | 20683 ft | 342 kts | 79° |
| 2026-05-04 22:40 | 60.30809 | 14.02229 | 20685 ft | 342 kts | 79° |
| 2026-05-04 22:40 | 60.31194 | 14.06956 | 20691 ft | 342 kts | 79° |
| 2026-05-04 22:41 | 60.31575 | 14.11688 | 20681 ft | 343 kts | 79° |
| 2026-05-04 22:41 | 60.31956 | 14.16388 | 20679 ft | 342 kts | 80° |
| 2026-05-04 22:41 | 60.32339 | 14.21152 | 20682 ft | 342 kts | 79° |
| 2026-05-04 22:41 | 60.32715 | 14.25843 | 20688 ft | 342 kts | 79° |
| 2026-05-04 22:42 | 60.33095 | 14.30590 | 20692 ft | 342 kts | 79° |
| 2026-05-04 22:42 | 60.33464 | 14.35287 | 20690 ft | 343 kts | 80° |
| 2026-05-04 22:42 | 60.33841 | 14.40068 | 20686 ft | 343 kts | 79° |
| 2026-05-04 22:42 | 60.34209 | 14.44791 | 20701 ft | 343 kts | 78° |
| 2026-05-04 22:43 | 60.34584 | 14.49544 | 20708 ft | 343 kts | 78° |
| 2026-05-04 22:43 | 60.34953 | 14.54253 | 20681 ft | 343 kts | 79° |
| 2026-05-04 22:43 | 60.35313 | 14.58993 | 20691 ft | 343 kts | 79° |
| 2026-05-04 22:43 | 60.35680 | 14.63743 | 20691 ft | 343 kts | 78° |
| 2026-05-04 22:44 | 60.36053 | 14.68499 | 20682 ft | 343 kts | 81° |
| 2026-05-04 22:44 | 60.36413 | 14.73288 | 20675 ft | 343 kts | 81° |
| 2026-05-04 22:44 | 60.36771 | 14.78016 | 20684 ft | 342 kts | 81° |
| 2026-05-04 22:44 | 60.37127 | 14.82727 | 20680 ft | 343 kts | 81° |
| 2026-05-04 22:45 | 60.37480 | 14.87449 | 20692 ft | 342 kts | 81° |
| 2026-05-04 22:45 | 60.38191 | 14.96940 | 20681 ft | 342 kts | 81° |
| 2026-05-04 22:45 | 60.38544 | 15.01734 | 20672 ft | 343 kts | 81° |
| 2026-05-04 22:46 | 60.38888 | 15.06463 | 20692 ft | 343 kts | 80° |
| 2026-05-04 22:46 | 60.39242 | 15.11223 | 20678 ft | 343 kts | 81° |
| 2026-05-04 22:46 | 60.39584 | 15.15927 | 20660 ft | 342 kts | 80° |
| 2026-05-04 22:46 | 60.39930 | 15.20687 | 20678 ft | 342 kts | 80° |
| 2026-05-04 22:47 | 60.40272 | 15.25448 | 20675 ft | 342 kts | 80° |
| 2026-05-04 22:47 | 60.40612 | 15.30221 | 20671 ft | 342 kts | 80° |
| 2026-05-04 22:47 | 60.40953 | 15.34916 | 20674 ft | 342 kts | 81° |
| 2026-05-04 22:47 | 60.41285 | 15.39657 | 20685 ft | 343 kts | 80° |
| 2026-05-04 22:48 | 60.41630 | 15.44460 | 20685 ft | 343 kts | 81° |
| 2026-05-04 22:48 | 60.41959 | 15.49182 | 20680 ft | 343 kts | 81° |
| 2026-05-04 22:48 | 60.42072 | 15.53951 | 20672 ft | 340 kts | 96° |
| 2026-05-04 22:48 | 60.41894 | 15.58732 | 20687 ft | 341 kts | 97° |
| 2026-05-04 22:49 | 60.41700 | 15.63487 | 20672 ft | 341 kts | 97° |
| 2026-05-04 22:49 | 60.41512 | 15.68249 | 20671 ft | 341 kts | 98° |
| 2026-05-04 22:49 | 60.41320 | 15.73008 | 20663 ft | 340 kts | 98° |
| 2026-05-04 22:49 | 60.41129 | 15.77770 | 20673 ft | 340 kts | 98° |
| 2026-05-04 22:50 | 60.40934 | 15.82493 | 20656 ft | 339 kts | 98° |
| 2026-05-04 22:50 | 60.40742 | 15.87235 | 20676 ft | 339 kts | 98° |
| 2026-05-04 22:50 | 60.40539 | 15.92014 | 20678 ft | 339 kts | 98° |
| 2026-05-04 22:50 | 60.40347 | 15.96712 | 20666 ft | 339 kts | 98° |
| 2026-05-04 22:51 | 60.40146 | 16.01424 | 20668 ft | 339 kts | 98° |
| 2026-05-04 22:51 | 60.39949 | 16.06143 | 20671 ft | 339 kts | 98° |
| 2026-05-04 22:51 | 60.39741 | 16.10874 | 20676 ft | 339 kts | 98° |
| 2026-05-04 22:51 | 60.39538 | 16.15624 | 20656 ft | 339 kts | 98° |
| 2026-05-04 22:52 | 60.39334 | 16.20358 | 20670 ft | 337 kts | 98° |
| 2026-05-04 22:52 | 60.39124 | 16.25022 | 20664 ft | 337 kts | 97° |
| 2026-05-04 22:52 | 60.38918 | 16.29753 | 20663 ft | 336 kts | 98° |
| 2026-05-04 22:52 | 60.38706 | 16.34443 | 20671 ft | 336 kts | 98° |
| 2026-05-04 22:53 | 60.38496 | 16.39143 | 20685 ft | 337 kts | 97° |
| 2026-05-04 22:53 | 60.38289 | 16.43784 | 20680 ft | 337 kts | 98° |
| 2026-05-04 22:53 | 60.38068 | 16.48506 | 20679 ft | 337 kts | 98° |
| 2026-05-04 22:53 | 60.37851 | 16.53194 | 20653 ft | 337 kts | 98° |
| 2026-05-04 22:54 | 60.37631 | 16.57944 | 20669 ft | 336 kts | 98° |
| 2026-05-04 22:54 | 60.37412 | 16.62624 | 20670 ft | 336 kts | 98° |
| 2026-05-04 22:54 | 60.37195 | 16.67276 | 20666 ft | 336 kts | 99° |
| 2026-05-04 22:54 | 60.36972 | 16.71992 | 20655 ft | 336 kts | 99° |
| 2026-05-04 22:55 | 60.36746 | 16.76638 | 20647 ft | 336 kts | 99° |
| 2026-05-04 22:55 | 60.36517 | 16.81341 | 20652 ft | 335 kts | 99° |
| 2026-05-04 22:55 | 60.36294 | 16.86003 | 20671 ft | 336 kts | 99° |
| 2026-05-04 22:55 | 60.36064 | 16.90717 | 20645 ft | 336 kts | 99° |
| 2026-05-04 22:56 | 60.35833 | 16.95366 | 20650 ft | 335 kts | 99° |
| 2026-05-04 22:56 | 60.35600 | 17.00052 | 20647 ft | 335 kts | 99° |
| 2026-05-04 22:56 | 60.35370 | 17.04679 | 20643 ft | 334 kts | 99° |
| 2026-05-04 22:56 | 60.35134 | 17.09312 | 20653 ft | 334 kts | 99° |
| 2026-05-04 22:57 | 60.34896 | 17.13984 | 20643 ft | 335 kts | 99° |
| 2026-05-04 22:57 | 60.34661 | 17.18632 | 20648 ft | 334 kts | 99° |
| 2026-05-04 22:57 | 60.34425 | 17.23264 | 20650 ft | 333 kts | 99° |
| 2026-05-04 22:57 | 60.34182 | 17.27919 | 20664 ft | 334 kts | 99° |
| 2026-05-04 22:58 | 60.33938 | 17.32595 | 20672 ft | 335 kts | 99° |
| 2026-05-04 22:58 | 60.33693 | 17.37236 | 20665 ft | 338 kts | 99° |
| 2026-05-04 22:58 | 60.33443 | 17.41975 | 20668 ft | 339 kts | 99° |
| 2026-05-04 22:58 | 60.33190 | 17.46676 | 20662 ft | 341 kts | 98° |
| 2026-05-04 22:59 | 60.32939 | 17.51387 | 20680 ft | 341 kts | 99° |
| 2026-05-04 22:59 | 60.32681 | 17.56179 | 20668 ft | 344 kts | 98° |
| 2026-05-04 22:59 | 60.32423 | 17.60955 | 20647 ft | 344 kts | 98° |
| 2026-05-04 22:59 | 60.32163 | 17.65715 | 20677 ft | 344 kts | 100° |
| 2026-05-04 23:00 | 60.31901 | 17.70501 | 20656 ft | 345 kts | 101° |
| 2026-05-04 23:00 | 60.31627 | 17.75321 | 20651 ft | 344 kts | 99° |
| 2026-05-04 23:00 | 60.31363 | 17.80103 | 20656 ft | 344 kts | 100° |
| 2026-05-04 23:00 | 60.31092 | 17.84875 | 20642 ft | 344 kts | 100° |
| 2026-05-04 23:01 | 60.30829 | 17.89603 | 20643 ft | 344 kts | 100° |
| 2026-05-04 23:01 | 60.30556 | 17.94368 | 20643 ft | 343 kts | 100° |
| 2026-05-04 23:01 | 60.30284 | 17.99154 | 20647 ft | 344 kts | 100° |
| 2026-05-04 23:01 | 60.30006 | 18.03915 | 20638 ft | 344 kts | 100° |
| 2026-05-04 23:02 | 60.29728 | 18.08718 | 20625 ft | 343 kts | 100° |
| 2026-05-04 23:02 | 60.29450 | 18.13458 | 20653 ft | 343 kts | 99° |
| 2026-05-04 23:02 | 60.29172 | 18.18246 | 20645 ft | 343 kts | 99° |
| 2026-05-04 23:02 | 60.28890 | 18.22976 | 20638 ft | 343 kts | 99° |
| 2026-05-04 23:03 | 60.28612 | 18.27706 | 20633 ft | 343 kts | 100° |
| 2026-05-04 23:03 | 60.28328 | 18.32459 | 20634 ft | 343 kts | 100° |
| 2026-05-04 23:03 | 60.28036 | 18.37230 | 20624 ft | 343 kts | 100° |
| 2026-05-04 23:03 | 60.27686 | 18.41985 | 20650 ft | 344 kts | 103° |
| 2026-05-04 23:04 | 60.27275 | 18.46767 | 20645 ft | 348 kts | 103° |
| 2026-05-04 23:04 | 60.26864 | 18.51560 | 20655 ft | 357 kts | 103° |
| 2026-05-04 23:04 | 60.26435 | 18.56554 | 20665 ft | 366 kts | 103° |
| 2026-05-04 23:04 | 60.25996 | 18.61655 | 20659 ft | 372 kts | 103° |
| 2026-05-04 23:05 | 60.25550 | 18.66780 | 20630 ft | 376 kts | 103° |
| 2026-05-04 23:05 | 60.25102 | 18.71938 | 20657 ft | 380 kts | 104° |
| 2026-05-04 23:05 | 60.24643 | 18.77188 | 20637 ft | 382 kts | 103° |
| 2026-05-04 23:05 | 60.24178 | 18.82480 | 20636 ft | 384 kts | 104° |
| 2026-05-04 23:06 | 60.23715 | 18.87723 | 20626 ft | 386 kts | 104° |
| 2026-05-04 23:06 | 60.23246 | 18.93020 | 20660 ft | 389 kts | 104° |
| 2026-05-04 23:06 | 60.22763 | 18.98424 | 20636 ft | 390 kts | 104° |
| 2026-05-04 23:06 | 60.22286 | 19.03742 | 20634 ft | 392 kts | 104° |
| 2026-05-04 23:07 | 60.21800 | 19.09126 | 20627 ft | 391 kts | 103° |
| 2026-05-04 23:07 | 60.21312 | 19.14531 | 20668 ft | 392 kts | 103° |
| 2026-05-04 23:07 | 60.20823 | 19.19908 | 20650 ft | 394 kts | 103° |
| 2026-05-04 23:07 | 60.20332 | 19.25264 | 20646 ft | 393 kts | 103° |
| 2026-05-04 23:08 | 60.19838 | 19.30654 | 20636 ft | 394 kts | 103° |
| 2026-05-04 23:08 | 60.19340 | 19.36074 | 20647 ft | 394 kts | 103° |
| 2026-05-04 23:08 | 60.18845 | 19.41410 | 20625 ft | 394 kts | 103° |
| 2026-05-04 23:08 | 60.18339 | 19.46852 | 20645 ft | 393 kts | 103° |
| 2026-05-04 23:09 | 60.17838 | 19.52220 | 20659 ft | 393 kts | 103° |
| 2026-05-04 23:09 | 60.17330 | 19.57598 | 20645 ft | 393 kts | 103° |
| 2026-05-04 23:09 | 60.16831 | 19.62913 | 20642 ft | 393 kts | 103° |
| 2026-05-04 23:09 | 60.16316 | 19.68357 | 20656 ft | 393 kts | 104° |
| 2026-05-04 23:10 | 60.15805 | 19.73672 | 20635 ft | 393 kts | 104° |
| 2026-05-04 23:10 | 60.15289 | 19.79071 | 20647 ft | 392 kts | 104° |
| 2026-05-04 23:10 | 60.14776 | 19.84419 | 20635 ft | 392 kts | 104° |
| 2026-05-04 23:10 | 60.14267 | 19.89723 | 20644 ft | 392 kts | 104° |
| 2026-05-04 23:11 | 60.13868 | 19.95126 | 20649 ft | 393 kts | 99° |
| 2026-05-04 23:11 | 60.13564 | 20.00558 | 20646 ft | 393 kts | 98° |
| 2026-05-04 23:11 | 60.13250 | 20.06021 | 20647 ft | 393 kts | 98° |
| 2026-05-04 23:11 | 60.12936 | 20.11399 | 20639 ft | 393 kts | 98° |
| 2026-05-04 23:12 | 60.12613 | 20.16836 | 20634 ft | 392 kts | 98° |
| 2026-05-04 23:12 | 60.12295 | 20.22225 | 20647 ft | 392 kts | 99° |
| 2026-05-04 23:12 | 60.11969 | 20.27644 | 20639 ft | 392 kts | 99° |
| 2026-05-04 23:12 | 60.11636 | 20.33082 | 20639 ft | 392 kts | 98° |
| 2026-05-04 23:13 | 60.11312 | 20.38447 | 20634 ft | 392 kts | 99° |
| 2026-05-04 23:13 | 60.10980 | 20.43836 | 20637 ft | 392 kts | 99° |
| 2026-05-04 23:13 | 60.10649 | 20.49254 | 20638 ft | 392 kts | 99° |
| 2026-05-04 23:13 | 60.10310 | 20.54663 | 20637 ft | 392 kts | 98° |
| 2026-05-04 23:14 | 60.09975 | 20.60034 | 20638 ft | 392 kts | 98° |
| 2026-05-04 23:14 | 60.09631 | 20.65460 | 20667 ft | 392 kts | 99° |
| 2026-05-04 23:14 | 60.09293 | 20.70838 | 20631 ft | 392 kts | 99° |
| 2026-05-04 23:14 | 60.08944 | 20.76293 | 20632 ft | 391 kts | 100° |
| 2026-05-04 23:15 | 60.08597 | 20.81664 | 20636 ft | 391 kts | 99° |
| 2026-05-04 23:15 | 60.08250 | 20.87043 | 20626 ft | 390 kts | 99° |
| 2026-05-04 23:15 | 60.07903 | 20.92390 | 20636 ft | 390 kts | 99° |
| 2026-05-04 23:15 | 60.07551 | 20.97789 | 20626 ft | 391 kts | 100° |
| 2026-05-04 23:16 | 60.07195 | 21.03160 | 20633 ft | 390 kts | 100° |
| 2026-05-04 23:16 | 60.06839 | 21.08515 | 20640 ft | 390 kts | 99° |
| 2026-05-04 23:16 | 60.06483 | 21.13863 | 20639 ft | 389 kts | 100° |
| 2026-05-04 23:16 | 60.06126 | 21.19156 | 20640 ft | 387 kts | 100° |
| 2026-05-04 23:17 | 60.05769 | 21.24463 | 20642 ft | 383 kts | 100° |
| 2026-05-04 23:17 | 60.05408 | 21.29714 | 20644 ft | 381 kts | 99° |
| 2026-05-04 23:17 | 60.05054 | 21.34924 | 20634 ft | 379 kts | 100° |
| 2026-05-04 23:17 | 60.04694 | 21.40123 | 20640 ft | 377 kts | 99° |
| 2026-05-04 23:18 | 60.04342 | 21.45247 | 20642 ft | 376 kts | 100° |
| 2026-05-04 23:18 | 60.03978 | 21.50455 | 20641 ft | 375 kts | 100° |
| 2026-05-04 23:18 | 60.03620 | 21.55543 | 20644 ft | 374 kts | 99° |
| 2026-05-04 23:18 | 60.03258 | 21.60699 | 20649 ft | 374 kts | 99° |
| 2026-05-04 23:19 | 60.02897 | 21.65803 | 20643 ft | 373 kts | 101° |
| 2026-05-04 23:19 | 60.02536 | 21.70923 | 20634 ft | 373 kts | 101° |
| 2026-05-04 23:19 | 60.02168 | 21.76024 | 20631 ft | 372 kts | 101° |
| 2026-05-04 23:19 | 60.01797 | 21.81167 | 20633 ft | 371 kts | 101° |
| 2026-05-04 23:20 | 60.01430 | 21.86222 | 20634 ft | 371 kts | 101° |
| 2026-05-04 23:20 | 60.01056 | 21.91316 | 20635 ft | 371 kts | 101° |
| 2026-05-04 23:20 | 60.00692 | 21.96345 | 20645 ft | 371 kts | 101° |
| 2026-05-04 23:20 | 60.00317 | 22.01418 | 20634 ft | 370 kts | 101° |
| 2026-05-04 23:21 | 59.99940 | 22.06508 | 20657 ft | 370 kts | 101° |
| 2026-05-04 23:21 | 59.99567 | 22.11541 | 20648 ft | 370 kts | 101° |
| 2026-05-04 23:21 | 59.99184 | 22.16634 | 20659 ft | 370 kts | 101° |
| 2026-05-04 23:21 | 59.98801 | 22.21707 | 20657 ft | 370 kts | 101° |
| 2026-05-04 23:22 | 59.98422 | 22.26729 | 20664 ft | 370 kts | 101° |
| 2026-05-04 23:22 | 59.98034 | 22.31814 | 20668 ft | 371 kts | 101° |
| 2026-05-04 23:22 | 59.97646 | 22.36912 | 20669 ft | 371 kts | 101° |
| 2026-05-04 23:22 | 59.97258 | 22.41957 | 20660 ft | 370 kts | 101° |
| 2026-05-04 23:23 | 59.96866 | 22.47026 | 20672 ft | 370 kts | 101° |
| 2026-05-04 23:23 | 59.96478 | 22.52036 | 20671 ft | 370 kts | 101° |
| 2026-05-04 23:23 | 59.96081 | 22.57116 | 20672 ft | 370 kts | 101° |
| 2026-05-04 23:23 | 59.95689 | 22.62118 | 20673 ft | 369 kts | 101° |
| 2026-05-04 23:24 | 59.95289 | 22.67168 | 20675 ft | 369 kts | 102° |
| 2026-05-04 23:24 | 59.94911 | 22.71932 | 20678 ft | 368 kts | 102° |
| 2026-05-04 23:24 | 59.94512 | 22.76970 | 20671 ft | 368 kts | 102° |
| 2026-05-04 23:24 | 59.94112 | 22.81974 | 20667 ft | 368 kts | 102° |
| 2026-05-04 23:25 | 59.93704 | 22.87032 | 20677 ft | 368 kts | 102° |
| 2026-05-04 23:25 | 59.93301 | 22.92003 | 20681 ft | 368 kts | 102° |
| 2026-05-04 23:25 | 59.92892 | 22.97053 | 20562 ft | 371 kts | 102° |
| 2026-05-04 23:25 | 59.92479 | 23.02103 | 20288 ft | 366 kts | 102° |
| 2026-05-04 23:26 | 59.92081 | 23.06978 | 19975 ft | 353 kts | 102° |
| 2026-05-04 23:26 | 59.91686 | 23.11745 | 19622 ft | 344 kts | 103° |
| 2026-05-04 23:26 | 59.91305 | 23.16341 | 19266 ft | 338 kts | 103° |
| 2026-05-04 23:26 | 59.90928 | 23.20890 | 18912 ft | 332 kts | 103° |
| 2026-05-04 23:27 | 59.90550 | 23.25409 | 18559 ft | 327 kts | 103° |
| 2026-05-04 23:27 | 59.90182 | 23.29781 | 18234 ft | 322 kts | 103° |
| 2026-05-04 23:27 | 59.89813 | 23.34183 | 17934 ft | 319 kts | 103° |
| 2026-05-04 23:27 | 59.89447 | 23.38487 | 17643 ft | 318 kts | 103° |
| 2026-05-04 23:28 | 59.89082 | 23.42787 | 17344 ft | 316 kts | 103° |
| 2026-05-04 23:28 | 59.88717 | 23.47089 | 17029 ft | 315 kts | 103° |
| 2026-05-04 23:28 | 59.88354 | 23.51338 | 16711 ft | 315 kts | 103° |
| 2026-05-04 23:28 | 59.87984 | 23.55614 | 16389 ft | 313 kts | 103° |
| 2026-05-04 23:29 | 59.87618 | 23.59882 | 16071 ft | 312 kts | 103° |
| 2026-05-04 23:29 | 59.87253 | 23.64106 | 15754 ft | 311 kts | 103° |
| 2026-05-04 23:29 | 59.86921 | 23.68320 | 15428 ft | 310 kts | 102° |
| 2026-05-04 23:29 | 59.86628 | 23.72539 | 15100 ft | 308 kts | 102° |
| 2026-05-04 23:30 | 59.86163 | 23.76592 | 14750 ft | 299 kts | 121° |
| 2026-05-04 23:30 | 59.85325 | 23.80359 | 14442 ft | 297 kts | 121° |
| 2026-05-04 23:30 | 59.84490 | 23.84082 | 14116 ft | 295 kts | 121° |
| 2026-05-04 23:30 | 59.83660 | 23.87773 | 13795 ft | 294 kts | 121° |
| 2026-05-04 23:31 | 59.82827 | 23.91437 | 13473 ft | 292 kts | 121° |
| 2026-05-04 23:31 | 59.81984 | 23.95089 | 13148 ft | 291 kts | 121° |
| 2026-05-04 23:31 | 59.81016 | 23.98538 | 12804 ft | 280 kts | 138° |
| 2026-05-04 23:31 | 59.79749 | 24.01445 | 12500 ft | 276 kts | 139° |
| 2026-05-04 23:32 | 59.78477 | 24.04249 | 12176 ft | 274 kts | 140° |
| 2026-05-04 23:32 | 59.77200 | 24.07031 | 11848 ft | 273 kts | 140° |
| 2026-05-04 23:32 | 59.75943 | 24.09755 | 11526 ft | 271 kts | 140° |
| 2026-05-04 23:32 | 59.74670 | 24.12505 | 11201 ft | 270 kts | 139° |
| 2026-05-04 23:33 | 59.73411 | 24.15222 | 10874 ft | 268 kts | 139° |
| 2026-05-04 23:33 | 59.72157 | 24.17920 | 10546 ft | 267 kts | 139° |
| 2026-05-04 23:33 | 59.70901 | 24.20622 | 10217 ft | 265 kts | 139° |
| 2026-05-04 23:33 | 59.69661 | 24.23282 | 9888 ft | 263 kts | 139° |
| 2026-05-04 23:34 | 59.68431 | 24.25920 | 9555 ft | 260 kts | 139° |
| 2026-05-04 23:34 | 59.67209 | 24.28535 | 9222 ft | 257 kts | 139° |
| 2026-05-04 23:34 | 59.66004 | 24.31114 | 8892 ft | 255 kts | 138° |
| 2026-05-04 23:34 | 59.64817 | 24.33648 | 8564 ft | 254 kts | 138° |
| 2026-05-04 23:35 | 59.63623 | 24.36194 | 8224 ft | 252 kts | 137° |
| 2026-05-04 23:35 | 59.62441 | 24.38716 | 7898 ft | 251 kts | 137° |
| 2026-05-04 23:35 | 59.61262 | 24.41226 | 7555 ft | 250 kts | 137° |
| 2026-05-04 23:35 | 59.60079 | 24.43739 | 7212 ft | 249 kts | 137° |
| 2026-05-04 23:36 | 59.58916 | 24.46211 | 6904 ft | 248 kts | 136° |
| 2026-05-04 23:36 | 59.57743 | 24.48701 | 6575 ft | 246 kts | 136° |
| 2026-05-04 23:36 | 59.56592 | 24.51144 | 6227 ft | 245 kts | 136° |
| 2026-05-04 23:36 | 59.55438 | 24.53589 | 5885 ft | 244 kts | 136° |
| 2026-05-04 23:37 | 59.54284 | 24.56035 | 5562 ft | 243 kts | 136° |
| 2026-05-04 23:37 | 59.53144 | 24.58456 | 5215 ft | 242 kts | 137° |
| 2026-05-04 23:37 | 59.51993 | 24.60874 | 4880 ft | 241 kts | 136° |
| 2026-05-04 23:37 | 59.50937 | 24.63423 | 4541 ft | 242 kts | 130° |
| 2026-05-04 23:38 | 59.49980 | 24.66128 | 4200 ft | 243 kts | 122° |
| 2026-05-04 23:38 | 59.49280 | 24.69119 | 3857 ft | 245 kts | 100° |
| 2026-05-04 23:38 | 59.49292 | 24.72457 | 3554 ft | 243 kts | 90° |
| 2026-05-04 23:38 | 59.49297 | 24.75755 | 3226 ft | 243 kts | 90° |
| 2026-05-04 23:39 | 59.49305 | 24.79069 | 2893 ft | 243 kts | 90° |
| 2026-05-04 23:39 | 59.49318 | 24.82384 | 2560 ft | 242 kts | 90° |
| 2026-05-04 23:39 | 59.49335 | 24.85710 | 2251 ft | 240 kts | 90° |
| 2026-05-04 23:39 | 59.49359 | 24.88856 | 2187 ft | 222 kts | 90° |
| 2026-05-04 23:40 | 59.49383 | 24.91756 | 2177 ft | 204 kts | 90° |
| 2026-05-04 23:40 | 59.49408 | 24.94449 | 2179 ft | 189 kts | 89° |
| 2026-05-04 23:40 | 59.49432 | 24.96926 | 2173 ft | 176 kts | 90° |
| 2026-05-04 23:40 | 59.49456 | 24.99254 | 2182 ft | 164 kts | 89° |
| 2026-05-04 23:41 | 59.49413 | 25.01404 | 2172 ft | 151 kts | 112° |
| 2026-05-04 23:41 | 59.48826 | 25.02974 | 2194 ft | 141 kts | 156° |
| 2026-05-04 23:41 | 59.47887 | 25.03508 | 2223 ft | 145 kts | 178° |
| 2026-05-04 23:41 | 59.46852 | 25.03829 | 2239 ft | 153 kts | 177° |
| 2026-05-04 23:42 | 59.45787 | 25.04129 | 2212 ft | 158 kts | 179° |
| 2026-05-04 23:42 | 59.44708 | 25.04439 | 2193 ft | 159 kts | 178° |
| 2026-05-04 23:42 | 59.43616 | 25.04748 | 2190 ft | 156 kts | 184° |
| 2026-05-04 23:42 | 59.42647 | 25.04104 | 2012 ft | 150 kts | 226° |
| 2026-05-04 23:43 | 59.42014 | 25.02554 | 1950 ft | 142 kts | 238° |
| 2026-05-04 23:43 | 59.41448 | 25.01025 | 1905 ft | 132 kts | 236° |
| 2026-05-04 23:43 | 59.41225 | 24.99345 | 1740 ft | 129 kts | 270° |
| 2026-05-04 23:43 | 59.41246 | 24.97782 | 1854 ft | 106 kts | 269° |
| 2026-05-04 23:44 | 59.41273 | 24.96343 | 1586 ft | 100 kts | 272° |
| 2026-05-04 23:44 | 59.41316 | 24.95030 | 1266 ft | 96 kts | 269° |
| 2026-05-04 23:44 | 59.41328 | 24.93762 | 1001 ft | 88 kts | 264° |
| 2026-05-04 23:44 | 59.41320 | 24.92607 | 760 ft | 86 kts | 266° |
| 2026-05-04 23:45 | 59.41323 | 24.91327 | 658 ft | 96 kts | 266° |
| 2026-05-04 23:45 | 59.41309 | 24.90008 | 562 ft | 97 kts | 264° |
| 2026-05-04 23:45 | 59.41312 | 24.88660 | 423 ft | 99 kts | 266° |
| 2026-05-04 23:45 | 59.41317 | 24.87308 | 271 ft | 98 kts | 266° |
| 2026-05-04 23:46 | 59.41322 | 24.86007 | 146 ft | 87 kts | 266° |
| 2026-05-04 23:46 | 59.41311 | 24.84922 | 146 ft | 76 kts | 270° |
| 2026-05-04 23:46 | 59.41317 | 24.84027 | 146 ft | 58 kts | 270° |
| 2026-05-04 23:46 | 59.41324 | 24.83324 | 146 ft | 33 kts | 271° |
| 2026-05-04 23:47 | 59.41333 | 24.82858 | 143 ft | 40 kts | 279° |
| 2026-05-04 23:47 | 59.41421 | 24.82448 | 142 ft | 23 kts | 297° |
| 2026-05-04 23:47 | 59.41497 | 24.82144 | 142 ft | 25 kts | 282° |
| 2026-05-04 23:47 | 59.41501 | 24.81850 | 142 ft | 24 kts | 267° |
| 2026-05-04 23:48 | 59.41501 | 24.81460 | 143 ft | 22 kts | 269° |
| 2026-05-04 23:48 | 59.41528 | 24.81200 | 147 ft | 21 kts | 331° |
| 2026-05-04 23:48 | 59.41656 | 24.81137 | 152 ft | 16 kts | 282° |
| 2026-05-04 23:48 | 59.41685 | 24.80949 | 153 ft | 13 kts | 347° |
| 2026-05-04 23:49 | 59.41740 | 24.80947 | 155 ft | 0 kts | 360° |